sensor_id;sensor_type;location;lat;lon;timestamp;temperature;humidity
68177;DHT22;56478;50.982;7.032;2023-09-19T00:00:42;17.81;80.62
68177;DHT22;56478;50.982;7.032;2023-09-19T00:03:10;17.75;79.96
68177;DHT22;56478;50.982;7.032;2023-09-19T00:05:37;17.69;79.01
68177;DHT22;56478;50.982;7.032;2023-09-19T00:08:09;17.72;79.02
68177;DHT22;56478;50.982;7.032;2023-09-19T00:10:35;17.61;77.43
68177;DHT22;56478;50.982;7.032;2023-09-19T00:13:04;17.65;78.04
68177;DHT22;56478;50.982;7.032;2023-09-19T00:15:38;17.64;77.65
68177;DHT22;56478;50.982;7.032;2023-09-19T00:18:04;17.66;79.18
68177;DHT22;56478;50.982;7.032;2023-09-19T00:20:37;17.66;78.06
68177;DHT22;56478;50.982;7.032;2023-09-19T00:23:04;17.64;76.75
68177;DHT22;56478;50.982;7.032;2023-09-19T00:25:37;17.72;79.64
68177;DHT22;56478;50.982;7.032;2023-09-19T00:28:06;17.69;78.78
68177;DHT22;56478;50.982;7.032;2023-09-19T00:30:33;17.62;77.16
68177;DHT22;56478;50.982;7.032;2023-09-19T00:32:59;17.61;79.29
68177;DHT22;56478;50.982;7.032;2023-09-19T00:35:26;17.59;81.01
68177;DHT22;56478;50.982;7.032;2023-09-19T00:37:53;17.58;81.22
68177;DHT22;56478;50.982;7.032;2023-09-19T00:40:19;17.51;79.60
68177;DHT22;56478;50.982;7.032;2023-09-19T00:42:47;17.52;78.74
68177;DHT22;56478;50.982;7.032;2023-09-19T00:45:15;17.55;81.12
68177;DHT22;56478;50.982;7.032;2023-09-19T00:47:43;17.54;80.76
68177;DHT22;56478;50.982;7.032;2023-09-19T00:50:10;17.48;78.61
68177;DHT22;56478;50.982;7.032;2023-09-19T00:52:39;17.54;80.10
68177;DHT22;56478;50.982;7.032;2023-09-19T00:55:11;17.51;80.56
68177;DHT22;56478;50.982;7.032;2023-09-19T00:57:39;17.58;80.13
68177;DHT22;56478;50.982;7.032;2023-09-19T01:00:09;17.55;80.07
68177;DHT22;56478;50.982;7.032;2023-09-19T01:02:44;17.51;78.94
68177;DHT22;56478;50.982;7.032;2023-09-19T01:05:10;17.58;78.53
68177;DHT22;56478;50.982;7.032;2023-09-19T01:07:37;17.69;79.65
68177;DHT22;56478;50.982;7.032;2023-09-19T01:10:06;17.78;80.52
68177;DHT22;56478;50.982;7.032;2023-09-19T01:15:47;17.87;79.57
68177;DHT22;56478;50.982;7.032;2023-09-19T01:18:35;17.83;78.19
68177;DHT22;56478;50.982;7.032;2023-09-19T01:21:15;17.86;80.04
68177;DHT22;56478;50.982;7.032;2023-09-19T01:29:33;17.82;77.94
68177;DHT22;56478;50.982;7.032;2023-09-19T01:32:04;17.74;76.31
68177;DHT22;56478;50.982;7.032;2023-09-19T01:34:54;17.62;77.02
68177;DHT22;56478;50.982;7.032;2023-09-19T01:37:22;17.57;78.09
68177;DHT22;56478;50.982;7.032;2023-09-19T01:40:03;17.68;79.11
68177;DHT22;56478;50.982;7.032;2023-09-19T01:42:49;17.62;78.79
68177;DHT22;56478;50.982;7.032;2023-09-19T01:47:53;17.57;78.09
68177;DHT22;56478;50.982;7.032;2023-09-19T01:50:38;17.57;77.37
68177;DHT22;56478;50.982;7.032;2023-09-19T01:53:17;17.55;76.28
68177;DHT22;56478;50.982;7.032;2023-09-19T01:55:47;17.57;77.69
68177;DHT22;56478;50.982;7.032;2023-09-19T01:58:51;17.55;79.08
68177;DHT22;56478;50.982;7.032;2023-09-19T02:01:24;17.51;77.18
68177;DHT22;56478;50.982;7.032;2023-09-19T02:03:50;17.47;77.94
68177;DHT22;56478;50.982;7.032;2023-09-19T02:06:17;17.44;77.84
68177;DHT22;56478;50.982;7.032;2023-09-19T02:08:44;17.41;77.25
68177;DHT22;56478;50.982;7.032;2023-09-19T02:11:11;17.42;77.57
68177;DHT22;56478;50.982;7.032;2023-09-19T02:13:37;17.47;78.34
68177;DHT22;56478;50.982;7.032;2023-09-19T02:16:03;17.48;77.77
68177;DHT22;56478;50.982;7.032;2023-09-19T02:18:30;17.38;78.26
68177;DHT22;56478;50.982;7.032;2023-09-19T02:20:56;17.34;76.40
68177;DHT22;56478;50.982;7.032;2023-09-19T02:23:24;17.37;75.36
68177;DHT22;56478;50.982;7.032;2023-09-19T02:25:59;17.38;76.60
68177;DHT22;56478;50.982;7.032;2023-09-19T02:28:30;17.37;76.51
68177;DHT22;56478;50.982;7.032;2023-09-19T02:30:58;17.35;74.67
68177;DHT22;56478;50.982;7.032;2023-09-19T02:33:24;17.40;77.58
68177;DHT22;56478;50.982;7.032;2023-09-19T02:35:49;17.37;74.76
68177;DHT22;56478;50.982;7.032;2023-09-19T02:38:15;17.35;73.76
68177;DHT22;56478;50.982;7.032;2023-09-19T02:40:46;17.23;74.14
68177;DHT22;56478;50.982;7.032;2023-09-19T02:43:12;17.31;74.19
68177;DHT22;56478;50.982;7.032;2023-09-19T02:45:38;17.26;74.49
68177;DHT22;56478;50.982;7.032;2023-09-19T02:48:04;17.24;74.14
68177;DHT22;56478;50.982;7.032;2023-09-19T02:50:30;17.30;73.40
68177;DHT22;56478;50.982;7.032;2023-09-19T02:52:55;17.31;76.41
68177;DHT22;56478;50.982;7.032;2023-09-19T02:55:21;17.28;75.09
68177;DHT22;56478;50.982;7.032;2023-09-19T02:57:51;17.23;73.69
68177;DHT22;56478;50.982;7.032;2023-09-19T03:00:18;17.26;75.67
68177;DHT22;56478;50.982;7.032;2023-09-19T03:02:52;17.16;73.97
68177;DHT22;56478;50.982;7.032;2023-09-19T03:05:19;17.23;76.71
68177;DHT22;56478;50.982;7.032;2023-09-19T03:07:45;17.21;75.27
68177;DHT22;56478;50.982;7.032;2023-09-19T03:10:20;17.16;75.69
68177;DHT22;56478;50.982;7.032;2023-09-19T03:12:46;17.16;73.51
68177;DHT22;56478;50.982;7.032;2023-09-19T03:15:12;17.17;73.69
68177;DHT22;56478;50.982;7.032;2023-09-19T03:17:43;17.14;73.67
68177;DHT22;56478;50.982;7.032;2023-09-19T03:20:12;17.13;74.31
68177;DHT22;56478;50.982;7.032;2023-09-19T03:22:39;17.09;75.40
68177;DHT22;56478;50.982;7.032;2023-09-19T03:25:07;17.12;74.80
68177;DHT22;56478;50.982;7.032;2023-09-19T03:27:36;17.10;75.74
68177;DHT22;56478;50.982;7.032;2023-09-19T03:30:04;17.09;74.93
68177;DHT22;56478;50.982;7.032;2023-09-19T03:32:37;17.13;76.02
68177;DHT22;56478;50.982;7.032;2023-09-19T03:35:08;17.09;76.51
68177;DHT22;56478;50.982;7.032;2023-09-19T03:37:36;17.02;77.55
68177;DHT22;56478;50.982;7.032;2023-09-19T03:40:02;16.95;76.02
68177;DHT22;56478;50.982;7.032;2023-09-19T03:42:31;16.89;76.35
68177;DHT22;56478;50.982;7.032;2023-09-19T03:44:56;16.83;75.23
68177;DHT22;56478;50.982;7.032;2023-09-19T03:47:22;16.86;76.18
68177;DHT22;56478;50.982;7.032;2023-09-19T03:49:48;16.79;75.62
68177;DHT22;56478;50.982;7.032;2023-09-19T03:52:13;16.79;75.46
68177;DHT22;56478;50.982;7.032;2023-09-19T03:54:41;16.72;75.50
68177;DHT22;56478;50.982;7.032;2023-09-19T03:57:07;16.86;78.33
68177;DHT22;56478;50.982;7.032;2023-09-19T03:59:32;16.90;78.64
68177;DHT22;56478;50.982;7.032;2023-09-19T04:01:58;16.80;78.09
68177;DHT22;56478;50.982;7.032;2023-09-19T04:04:24;16.73;75.66
68177;DHT22;56478;50.982;7.032;2023-09-19T04:06:51;16.78;77.64
68177;DHT22;56478;50.982;7.032;2023-09-19T04:09:16;16.75;76.04
68177;DHT22;56478;50.982;7.032;2023-09-19T04:11:42;16.68;75.87
68177;DHT22;56478;50.982;7.032;2023-09-19T04:14:07;16.76;76.64
68177;DHT22;56478;50.982;7.032;2023-09-19T04:16:33;16.75;75.67
68177;DHT22;56478;50.982;7.032;2023-09-19T04:18:58;16.79;76.06
68177;DHT22;56478;50.982;7.032;2023-09-19T04:21:24;16.78;77.42
68177;DHT22;56478;50.982;7.032;2023-09-19T04:23:50;16.78;77.88
68177;DHT22;56478;50.982;7.032;2023-09-19T04:26:16;16.67;75.29
68177;DHT22;56478;50.982;7.032;2023-09-19T04:28:41;16.72;76.12
68177;DHT22;56478;50.982;7.032;2023-09-19T04:31:09;16.75;77.85
68177;DHT22;56478;50.982;7.032;2023-09-19T04:33:35;16.72;75.86
68177;DHT22;56478;50.982;7.032;2023-09-19T04:36:01;16.72;78.95
68177;DHT22;56478;50.982;7.032;2023-09-19T04:38:28;16.71;75.32
68177;DHT22;56478;50.982;7.032;2023-09-19T04:40:57;16.72;76.12
68177;DHT22;56478;50.982;7.032;2023-09-19T04:43:24;16.71;78.31
68177;DHT22;56478;50.982;7.032;2023-09-19T04:45:50;16.64;78.49
68177;DHT22;56478;50.982;7.032;2023-09-19T04:48:16;16.61;75.77
68177;DHT22;56478;50.982;7.032;2023-09-19T04:50:42;16.65;78.09
68177;DHT22;56478;50.982;7.032;2023-09-19T04:53:08;16.54;75.84
68177;DHT22;56478;50.982;7.032;2023-09-19T04:55:33;16.57;75.30
68177;DHT22;56478;50.982;7.032;2023-09-19T04:57:59;16.61;77.79
68177;DHT22;56478;50.982;7.032;2023-09-19T05:00:25;16.61;77.67
68177;DHT22;56478;50.982;7.032;2023-09-19T05:02:55;16.55;75.27
68177;DHT22;56478;50.982;7.032;2023-09-19T05:05:21;16.55;74.63
68177;DHT22;56478;50.982;7.032;2023-09-19T05:07:48;16.47;75.34
68177;DHT22;56478;50.982;7.032;2023-09-19T05:10:14;16.48;73.72
68177;DHT22;56478;50.982;7.032;2023-09-19T05:12:40;16.41;73.81
68177;DHT22;56478;50.982;7.032;2023-09-19T05:15:06;16.45;73.13
68177;DHT22;56478;50.982;7.032;2023-09-19T05:17:35;16.45;73.85
68177;DHT22;56478;50.982;7.032;2023-09-19T05:20:04;16.48;72.92
68177;DHT22;56478;50.982;7.032;2023-09-19T05:22:41;16.41;73.93
68177;DHT22;56478;50.982;7.032;2023-09-19T05:25:09;16.40;73.51
68177;DHT22;56478;50.982;7.032;2023-09-19T05:27:35;16.40;72.55
68177;DHT22;56478;50.982;7.032;2023-09-19T05:30:00;16.43;73.18
68177;DHT22;56478;50.982;7.032;2023-09-19T05:32:26;16.37;72.09
68177;DHT22;56478;50.982;7.032;2023-09-19T05:34:52;16.43;74.44
68177;DHT22;56478;50.982;7.032;2023-09-19T05:37:19;16.43;72.43
68177;DHT22;56478;50.982;7.032;2023-09-19T05:39:45;16.50;74.76
68177;DHT22;56478;50.982;7.032;2023-09-19T05:42:10;16.57;75.41
68177;DHT22;56478;50.982;7.032;2023-09-19T05:44:36;16.51;72.76
68177;DHT22;56478;50.982;7.032;2023-09-19T05:47:02;16.51;74.25
68177;DHT22;56478;50.982;7.032;2023-09-19T05:49:28;16.62;74.83
68177;DHT22;56478;50.982;7.032;2023-09-19T05:51:53;16.62;72.86
68177;DHT22;56478;50.982;7.032;2023-09-19T05:54:21;16.68;71.78
68177;DHT22;56478;50.982;7.032;2023-09-19T05:56:47;16.72;72.16
68177;DHT22;56478;50.982;7.032;2023-09-19T05:59:13;16.69;71.67
68177;DHT22;56478;50.982;7.032;2023-09-19T06:01:44;16.82;71.21
68177;DHT22;56478;50.982;7.032;2023-09-19T06:04:09;16.80;72.00
68177;DHT22;56478;50.982;7.032;2023-09-19T06:06:35;16.82;71.89
68177;DHT22;56478;50.982;7.032;2023-09-19T06:09:04;16.82;73.98
68177;DHT22;56478;50.982;7.032;2023-09-19T06:11:36;16.80;71.39
68177;DHT22;56478;50.982;7.032;2023-09-19T06:14:02;16.85;74.54
68177;DHT22;56478;50.982;7.032;2023-09-19T06:16:31;16.82;73.70
68177;DHT22;56478;50.982;7.032;2023-09-19T06:18:57;16.89;71.37
68177;DHT22;56478;50.982;7.032;2023-09-19T06:21:25;16.88;70.86
68177;DHT22;56478;50.982;7.032;2023-09-19T06:23:54;16.83;70.42
68177;DHT22;56478;50.982;7.032;2023-09-19T06:26:20;16.96;70.16
68177;DHT22;56478;50.982;7.032;2023-09-19T06:28:48;16.97;71.06
68177;DHT22;56478;50.982;7.032;2023-09-19T06:31:25;16.92;70.57
68177;DHT22;56478;50.982;7.032;2023-09-19T06:34:43;17.09;71.32
68177;DHT22;56478;50.982;7.032;2023-09-19T06:37:09;17.16;70.18
68177;DHT22;56478;50.982;7.032;2023-09-19T06:39:34;17.20;69.32
68177;DHT22;56478;50.982;7.032;2023-09-19T06:42:00;17.35;70.57
68177;DHT22;56478;50.982;7.032;2023-09-19T06:44:27;17.32;70.77
68177;DHT22;56478;50.982;7.032;2023-09-19T06:46:55;17.48;71.39
68177;DHT22;56478;50.982;7.032;2023-09-19T06:49:20;17.42;70.64
68177;DHT22;56478;50.982;7.032;2023-09-19T06:51:46;17.44;69.53
68177;DHT22;56478;50.982;7.032;2023-09-19T06:54:11;17.38;69.73
68177;DHT22;56478;50.982;7.032;2023-09-19T06:56:37;17.48;70.56
68177;DHT22;56478;50.982;7.032;2023-09-19T06:59:03;17.51;69.50
68177;DHT22;56478;50.982;7.032;2023-09-19T07:01:31;17.65;68.82
68177;DHT22;56478;50.982;7.032;2023-09-19T07:03:57;17.79;68.14
68177;DHT22;56478;50.982;7.032;2023-09-19T07:06:23;18.10;67.61
68177;DHT22;56478;50.982;7.032;2023-09-19T07:08:49;17.94;67.76
68177;DHT22;56478;50.982;7.032;2023-09-19T07:11:15;17.85;67.28
68177;DHT22;56478;50.982;7.032;2023-09-19T07:13:41;18.14;66.88
68177;DHT22;56478;50.982;7.032;2023-09-19T07:16:06;18.28;67.74
68177;DHT22;56478;50.982;7.032;2023-09-19T07:18:34;18.23;66.36
68177;DHT22;56478;50.982;7.032;2023-09-19T07:21:00;18.48;66.22
68177;DHT22;56478;50.982;7.032;2023-09-19T07:23:31;18.43;67.46
68177;DHT22;56478;50.982;7.032;2023-09-19T07:26:00;18.54;65.90
68177;DHT22;56478;50.982;7.032;2023-09-19T07:28:27;18.58;65.14
68177;DHT22;56478;50.982;7.032;2023-09-19T07:30:53;18.49;65.27
68177;DHT22;56478;50.982;7.032;2023-09-19T07:33:19;18.59;65.46
68177;DHT22;56478;50.982;7.032;2023-09-19T07:35:46;18.71;65.32
68177;DHT22;56478;50.982;7.032;2023-09-19T07:38:13;18.99;63.74
68177;DHT22;56478;50.982;7.032;2023-09-19T07:40:39;19.17;62.68
68177;DHT22;56478;50.982;7.032;2023-09-19T07:43:05;19.13;63.76
68177;DHT22;56478;50.982;7.032;2023-09-19T07:45:32;19.41;63.32
68177;DHT22;56478;50.982;7.032;2023-09-19T07:47:58;19.94;62.05
68177;DHT22;56478;50.982;7.032;2023-09-19T07:50:25;20.10;61.28
68177;DHT22;56478;50.982;7.032;2023-09-19T07:52:52;20.41;60.29
68177;DHT22;56478;50.982;7.032;2023-09-19T07:55:18;20.93;57.89
68177;DHT22;56478;50.982;7.032;2023-09-19T07:57:45;21.65;55.89
68177;DHT22;56478;50.982;7.032;2023-09-19T08:00:11;21.82;55.46
68177;DHT22;56478;50.982;7.032;2023-09-19T08:02:37;22.10;54.04
68177;DHT22;56478;50.982;7.032;2023-09-19T08:05:07;22.49;53.49
68177;DHT22;56478;50.982;7.032;2023-09-19T08:07:41;22.44;54.49
68177;DHT22;56478;50.982;7.032;2023-09-19T08:10:08;22.63;55.04
68177;DHT22;56478;50.982;7.032;2023-09-19T08:12:37;22.52;55.40
68177;DHT22;56478;50.982;7.032;2023-09-19T08:15:03;22.45;53.42
68177;DHT22;56478;50.982;7.032;2023-09-19T08:17:31;22.31;53.55
68177;DHT22;56478;50.982;7.032;2023-09-19T08:19:58;22.62;52.59
68177;DHT22;56478;50.982;7.032;2023-09-19T08:22:25;22.52;52.44
68177;DHT22;56478;50.982;7.032;2023-09-19T08:24:51;22.25;53.95
68177;DHT22;56478;50.982;7.032;2023-09-19T08:27:17;22.18;53.32
68177;DHT22;56478;50.982;7.032;2023-09-19T08:29:45;22.86;53.76
68177;DHT22;56478;50.982;7.032;2023-09-19T08:32:11;22.84;53.77
68177;DHT22;56478;50.982;7.032;2023-09-19T08:34:37;23.06;52.67
68177;DHT22;56478;50.982;7.032;2023-09-19T08:37:03;23.41;51.91
68177;DHT22;56478;50.982;7.032;2023-09-19T08:39:30;22.79;51.77
68177;DHT22;56478;50.982;7.032;2023-09-19T08:41:59;22.83;52.35
68177;DHT22;56478;50.982;7.032;2023-09-19T08:44:25;22.56;54.89
68177;DHT22;56478;50.982;7.032;2023-09-19T08:46:55;22.35;54.83
68177;DHT22;56478;50.982;7.032;2023-09-19T08:49:36;22.39;53.91
68177;DHT22;56478;50.982;7.032;2023-09-19T08:52:25;23.25;52.17
68177;DHT22;56478;50.982;7.032;2023-09-19T08:54:52;23.77;52.08
68177;DHT22;56478;50.982;7.032;2023-09-19T08:57:21;23.88;50.12
68177;DHT22;56478;50.982;7.032;2023-09-19T08:59:48;23.42;49.31
68177;DHT22;56478;50.982;7.032;2023-09-19T09:02:15;23.46;51.59
68177;DHT22;56478;50.982;7.032;2023-09-19T09:04:43;24.46;49.74
68177;DHT22;56478;50.982;7.032;2023-09-19T09:07:13;24.36;49.21
68177;DHT22;56478;50.982;7.032;2023-09-19T09:09:39;23.90;51.40
68177;DHT22;56478;50.982;7.032;2023-09-19T09:12:13;23.39;49.90
68177;DHT22;56478;50.982;7.032;2023-09-19T09:14:46;24.20;48.12
68177;DHT22;56478;50.982;7.032;2023-09-19T09:17:15;24.51;47.81
68177;DHT22;56478;50.982;7.032;2023-09-19T09:19:44;24.48;48.31
68177;DHT22;56478;50.982;7.032;2023-09-19T09:22:11;25.73;46.08
68177;DHT22;56478;50.982;7.032;2023-09-19T09:24:38;25.97;45.80
68177;DHT22;56478;50.982;7.032;2023-09-19T09:27:15;26.24;44.48
68177;DHT22;56478;50.982;7.032;2023-09-19T09:29:47;26.52;42.85
68177;DHT22;56478;50.982;7.032;2023-09-19T09:34:48;27.12;41.95
68177;DHT22;56478;50.982;7.032;2023-09-19T09:37:15;27.71;40.21
68177;DHT22;56478;50.982;7.032;2023-09-19T09:39:48;27.41;41.54
68177;DHT22;56478;50.982;7.032;2023-09-19T09:42:35;28.46;40.84
68177;DHT22;56478;50.982;7.032;2023-09-19T09:45:27;27.47;40.77
68177;DHT22;56478;50.982;7.032;2023-09-19T09:47:58;27.66;39.53
68177;DHT22;56478;50.982;7.032;2023-09-19T09:50:28;26.67;40.84
68177;DHT22;56478;50.982;7.032;2023-09-19T09:52:58;26.09;42.90
68177;DHT22;56478;50.982;7.032;2023-09-19T09:56:01;25.54;43.93
68177;DHT22;56478;50.982;7.032;2023-09-19T09:58:27;25.58;44.47
68177;DHT22;56478;50.982;7.032;2023-09-19T10:01:05;24.88;44.65
68177;DHT22;56478;50.982;7.032;2023-09-19T10:03:36;24.95;44.83
68177;DHT22;56478;50.982;7.032;2023-09-19T10:06:06;24.40;45.90
68177;DHT22;56478;50.982;7.032;2023-09-19T10:09:02;24.36;46.29
68177;DHT22;56478;50.982;7.032;2023-09-19T10:14:15;24.04;47.27
68177;DHT22;56478;50.982;7.032;2023-09-19T10:16:46;23.76;47.91
68177;DHT22;56478;50.982;7.032;2023-09-19T10:19:15;23.73;48.52
68177;DHT22;56478;50.982;7.032;2023-09-19T10:21:42;23.34;48.31
68177;DHT22;56478;50.982;7.032;2023-09-19T10:24:08;23.31;49.20
68177;DHT22;56478;50.982;7.032;2023-09-19T10:26:36;23.80;47.44
68177;DHT22;56478;50.982;7.032;2023-09-19T10:29:01;24.11;48.35
68177;DHT22;56478;50.982;7.032;2023-09-19T10:31:29;25.47;43.46
68177;DHT22;56478;50.982;7.032;2023-09-19T10:34:03;24.88;44.84
68177;DHT22;56478;50.982;7.032;2023-09-19T10:36:32;24.87;43.84
68177;DHT22;56478;50.982;7.032;2023-09-19T10:39:02;24.22;45.14
68177;DHT22;56478;50.982;7.032;2023-09-19T10:41:32;23.86;46.16
68177;DHT22;56478;50.982;7.032;2023-09-19T10:44:03;23.65;46.90
68177;DHT22;56478;50.982;7.032;2023-09-19T10:46:32;23.28;48.20
68177;DHT22;56478;50.982;7.032;2023-09-19T10:49:01;23.43;49.22
68177;DHT22;56478;50.982;7.032;2023-09-19T10:51:39;23.52;49.33
68177;DHT22;56478;50.982;7.032;2023-09-19T10:54:10;23.45;48.41
68177;DHT22;56478;50.982;7.032;2023-09-19T10:56:42;23.29;47.82
68177;DHT22;56478;50.982;7.032;2023-09-19T10:59:11;23.24;49.05
68177;DHT22;56478;50.982;7.032;2023-09-19T11:01:48;23.51;47.38
68177;DHT22;56478;50.982;7.032;2023-09-19T11:04:29;23.24;48.29
68177;DHT22;56478;50.982;7.032;2023-09-19T11:09:55;23.94;48.06
68177;DHT22;56478;50.982;7.032;2023-09-19T11:14:55;24.18;45.97
68177;DHT22;56478;50.982;7.032;2023-09-19T11:30:40;23.87;47.92
68177;DHT22;56478;50.982;7.032;2023-09-19T11:33:30;24.22;47.28
68177;DHT22;56478;50.982;7.032;2023-09-19T11:36:11;24.63;43.61
68177;DHT22;56478;50.982;7.032;2023-09-19T11:46:55;23.66;46.84
68177;DHT22;56478;50.982;7.032;2023-09-19T11:49:31;23.77;47.38
68177;DHT22;56478;50.982;7.032;2023-09-19T11:52:02;23.96;46.42
68177;DHT22;56478;50.982;7.032;2023-09-19T11:54:31;23.67;45.77
68177;DHT22;56478;50.982;7.032;2023-09-19T11:56:58;23.63;45.85
68177;DHT22;56478;50.982;7.032;2023-09-19T11:59:28;23.97;45.43
68177;DHT22;56478;50.982;7.032;2023-09-19T12:01:55;23.90;46.62
68177;DHT22;56478;50.982;7.032;2023-09-19T12:04:37;23.76;46.50
68177;DHT22;56478;50.982;7.032;2023-09-19T12:07:13;23.74;45.73
68177;DHT22;56478;50.982;7.032;2023-09-19T12:09:42;24.07;48.18
68177;DHT22;56478;50.982;7.032;2023-09-19T12:12:10;24.12;46.29
68177;DHT22;56478;50.982;7.032;2023-09-19T12:14:37;24.32;46.31
68177;DHT22;56478;50.982;7.032;2023-09-19T12:17:04;24.17;44.46
68177;DHT22;56478;50.982;7.032;2023-09-19T12:19:30;24.03;43.80
68177;DHT22;56478;50.982;7.032;2023-09-19T12:21:57;23.73;43.54
68177;DHT22;56478;50.982;7.032;2023-09-19T12:24:26;23.78;44.25
68177;DHT22;56478;50.982;7.032;2023-09-19T12:27:00;23.76;45.28
68177;DHT22;56478;50.982;7.032;2023-09-19T12:29:29;23.97;45.05
68177;DHT22;56478;50.982;7.032;2023-09-19T12:31:59;23.92;43.41
68177;DHT22;56478;50.982;7.032;2023-09-19T12:34:28;23.86;46.17
68177;DHT22;56478;50.982;7.032;2023-09-19T12:37:10;23.83;43.84
68177;DHT22;56478;50.982;7.032;2023-09-19T12:39:44;23.86;43.94
68177;DHT22;56478;50.982;7.032;2023-09-19T12:42:15;23.86;43.95
68177;DHT22;56478;50.982;7.032;2023-09-19T12:45:07;23.81;44.21
68177;DHT22;56478;50.982;7.032;2023-09-19T12:47:35;23.80;45.39
68177;DHT22;56478;50.982;7.032;2023-09-19T12:50:14;23.93;44.46
68177;DHT22;56478;50.982;7.032;2023-09-19T12:52:49;23.86;43.09
68177;DHT22;56478;50.982;7.032;2023-09-19T12:55:28;24.01;43.45
68177;DHT22;56478;50.982;7.032;2023-09-19T13:00:41;24.07;42.72
68177;DHT22;56478;50.982;7.032;2023-09-19T13:05:55;23.65;42.57
68177;DHT22;56478;50.982;7.032;2023-09-19T13:08:26;23.66;44.32
68177;DHT22;56478;50.982;7.032;2023-09-19T13:13:27;23.69;42.27
68177;DHT22;56478;50.982;7.032;2023-09-19T13:15:54;23.45;43.88
68177;DHT22;56478;50.982;7.032;2023-09-19T13:18:23;23.63;44.36
68177;DHT22;56478;50.982;7.032;2023-09-19T13:21:14;23.48;43.55
68177;DHT22;56478;50.982;7.032;2023-09-19T13:23:56;23.92;45.04
68177;DHT22;56478;50.982;7.032;2023-09-19T13:26:27;24.01;47.53
68177;DHT22;56478;50.982;7.032;2023-09-19T13:28:54;24.22;45.03
68177;DHT22;56478;50.982;7.032;2023-09-19T13:31:20;24.18;44.48
68177;DHT22;56478;50.982;7.032;2023-09-19T13:33:47;24.05;43.32
68177;DHT22;56478;50.982;7.032;2023-09-19T13:36:14;23.73;44.56
68177;DHT22;56478;50.982;7.032;2023-09-19T13:38:42;23.29;45.15
68177;DHT22;56478;50.982;7.032;2023-09-19T13:41:11;23.24;45.34
68177;DHT22;56478;50.982;7.032;2023-09-19T13:43:37;23.21;46.75
68177;DHT22;56478;50.982;7.032;2023-09-19T13:46:07;23.15;45.39
68177;DHT22;56478;50.982;7.032;2023-09-19T13:48:33;22.82;47.70
68177;DHT22;56478;50.982;7.032;2023-09-19T13:51:02;22.93;48.15
68177;DHT22;56478;50.982;7.032;2023-09-19T13:53:29;22.91;47.53
68177;DHT22;56478;50.982;7.032;2023-09-19T13:55:54;22.79;47.37
68177;DHT22;56478;50.982;7.032;2023-09-19T13:58:20;22.86;47.57
68177;DHT22;56478;50.982;7.032;2023-09-19T14:00:48;22.80;47.41
68177;DHT22;56478;50.982;7.032;2023-09-19T14:03:14;22.91;47.56
68177;DHT22;56478;50.982;7.032;2023-09-19T14:05:39;22.91;47.52
68177;DHT22;56478;50.982;7.032;2023-09-19T14:08:13;22.97;47.37
68177;DHT22;56478;50.982;7.032;2023-09-19T14:10:42;23.06;48.53
68177;DHT22;56478;50.982;7.032;2023-09-19T14:13:08;22.98;47.66
68177;DHT22;56478;50.982;7.032;2023-09-19T14:15:36;22.93;47.54
68177;DHT22;56478;50.982;7.032;2023-09-19T14:18:04;23.12;47.98
68177;DHT22;56478;50.982;7.032;2023-09-19T14:20:29;23.17;46.46
68177;DHT22;56478;50.982;7.032;2023-09-19T14:22:56;22.91;47.79
68177;DHT22;56478;50.982;7.032;2023-09-19T14:25:24;22.89;48.07
68177;DHT22;56478;50.982;7.032;2023-09-19T14:27:53;22.63;47.45
68177;DHT22;56478;50.982;7.032;2023-09-19T14:30:19;22.45;47.90
68177;DHT22;56478;50.982;7.032;2023-09-19T14:32:44;22.53;50.85
68177;DHT22;56478;50.982;7.032;2023-09-19T14:35:10;22.31;48.79
68177;DHT22;56478;50.982;7.032;2023-09-19T14:37:36;22.20;48.68
68177;DHT22;56478;50.982;7.032;2023-09-19T14:40:04;22.18;48.78
68177;DHT22;56478;50.982;7.032;2023-09-19T14:42:38;22.24;49.11
68177;DHT22;56478;50.982;7.032;2023-09-19T14:45:04;22.21;48.96
68177;DHT22;56478;50.982;7.032;2023-09-19T14:47:31;22.15;50.37
68177;DHT22;56478;50.982;7.032;2023-09-19T14:50:02;22.31;48.76
68177;DHT22;56478;50.982;7.032;2023-09-19T14:52:32;22.27;49.19
68177;DHT22;56478;50.982;7.032;2023-09-19T14:54:57;22.32;49.32
68177;DHT22;56478;50.982;7.032;2023-09-19T14:57:23;22.32;49.87
68177;DHT22;56478;50.982;7.032;2023-09-19T14:59:50;22.34;49.02
68177;DHT22;56478;50.982;7.032;2023-09-19T15:02:16;22.27;50.05
68177;DHT22;56478;50.982;7.032;2023-09-19T15:04:42;22.39;50.08
68177;DHT22;56478;50.982;7.032;2023-09-19T15:07:13;22.65;49.70
68177;DHT22;56478;50.982;7.032;2023-09-19T15:09:41;22.53;50.13
68177;DHT22;56478;50.982;7.032;2023-09-19T15:12:07;22.55;49.44
68177;DHT22;56478;50.982;7.032;2023-09-19T15:14:32;22.42;50.78
68177;DHT22;56478;50.982;7.032;2023-09-19T15:16:58;22.39;51.32
68177;DHT22;56478;50.982;7.032;2023-09-19T15:19:23;22.22;52.20
68177;DHT22;56478;50.982;7.032;2023-09-19T15:21:49;22.11;51.41
68177;DHT22;56478;50.982;7.032;2023-09-19T15:24:15;22.05;52.28
68177;DHT22;56478;50.982;7.032;2023-09-19T15:26:42;21.96;51.11
68177;DHT22;56478;50.982;7.032;2023-09-19T15:29:10;21.96;51.17
68177;DHT22;56478;50.982;7.032;2023-09-19T15:31:36;21.77;50.49
68177;DHT22;56478;50.982;7.032;2023-09-19T15:34:04;21.77;50.95
68177;DHT22;56478;50.982;7.032;2023-09-19T15:36:31;21.79;50.95
68177;DHT22;56478;50.982;7.032;2023-09-19T15:38:59;21.83;50.57
68177;DHT22;56478;50.982;7.032;2023-09-19T15:41:30;21.90;50.38
68177;DHT22;56478;50.982;7.032;2023-09-19T15:43:56;21.82;50.81
68177;DHT22;56478;50.982;7.032;2023-09-19T15:46:23;21.56;50.27
68177;DHT22;56478;50.982;7.032;2023-09-19T15:48:48;21.60;51.09
68177;DHT22;56478;50.982;7.032;2023-09-19T15:51:15;21.56;50.36
68177;DHT22;56478;50.982;7.032;2023-09-19T15:53:46;21.59;50.97
68177;DHT22;56478;50.982;7.032;2023-09-19T15:56:18;21.66;52.37
68177;DHT22;56478;50.982;7.032;2023-09-19T15:58:47;21.75;51.59
68177;DHT22;56478;50.982;7.032;2023-09-19T16:01:13;21.90;50.68
68177;DHT22;56478;50.982;7.032;2023-09-19T16:03:44;21.77;52.07
68177;DHT22;56478;50.982;7.032;2023-09-19T16:06:18;21.70;52.21
68177;DHT22;56478;50.982;7.032;2023-09-19T16:08:46;21.67;52.56
68177;DHT22;56478;50.982;7.032;2023-09-19T16:11:12;21.60;51.51
68177;DHT22;56478;50.982;7.032;2023-09-19T16:13:39;21.52;52.04
68177;DHT22;56478;50.982;7.032;2023-09-19T16:16:07;21.56;52.38
68177;DHT22;56478;50.982;7.032;2023-09-19T16:18:34;21.65;51.69
68177;DHT22;56478;50.982;7.032;2023-09-19T16:21:03;21.70;52.90
68177;DHT22;56478;50.982;7.032;2023-09-19T16:23:31;21.62;51.44
68177;DHT22;56478;50.982;7.032;2023-09-19T16:26:07;21.60;51.40
68177;DHT22;56478;50.982;7.032;2023-09-19T16:28:35;21.60;52.61
68177;DHT22;56478;50.982;7.032;2023-09-19T16:31:02;21.76;51.96
68177;DHT22;56478;50.982;7.032;2023-09-19T16:33:29;21.67;53.56